createdAt,value
2022-11-24T00:19:28.296Z,8
2022-11-24T00:29:30.680Z,8.2
2022-11-24T00:39:32.485Z,8.1
2022-11-24T00:49:34.705Z,8.1
2022-11-24T00:59:37.153Z,8
2022-11-24T01:19:41.571Z,7.9
2022-11-24T01:29:43.770Z,7.9
2022-11-24T01:39:45.710Z,7.9
2022-11-24T01:49:47.926Z,7.8
2022-11-24T01:59:50.159Z,7.8
2022-11-24T02:09:52.210Z,7.8
2022-11-24T02:19:54.644Z,7.8
2022-11-24T02:29:56.551Z,8
2022-11-24T02:39:59.181Z,8
2022-11-24T02:50:01.652Z,8.1
2022-11-24T03:50:14.508Z,8.2
2022-11-24T04:00:16.595Z,8.3
2022-11-24T04:10:18.628Z,8.3
2022-11-24T04:20:20.451Z,8.2
2022-11-24T04:30:23.246Z,8.3
2022-11-24T04:40:25.081Z,8.5
2022-11-24T04:50:26.933Z,8.6
2022-11-24T05:00:28.640Z,8.6
2022-11-24T05:10:31.209Z,8.5
2022-11-24T05:20:33.673Z,8.2
2022-11-24T05:30:35.621Z,8.1
2022-11-24T05:40:37.953Z,8.1
2022-11-24T05:50:40.447Z,8.1
2022-11-24T06:00:42.945Z,8.1
2022-11-24T06:10:45.291Z,8.1
2022-11-24T06:21:03.070Z,8.3
2022-11-24T06:30:49.674Z,8.4
2022-11-24T06:40:51.911Z,8.5
2022-11-24T06:50:54.457Z,8.7
2022-11-24T07:00:56.291Z,8.7
2022-11-24T07:10:58.367Z,8.8
2022-11-24T07:21:00.537Z,8.7
2022-11-24T07:31:02.550Z,8.7
2022-11-24T07:41:05.133Z,8.7
2022-11-24T08:01:10.464Z,8.7
2022-11-24T08:11:12.462Z,8.6
2022-11-24T08:41:18.211Z,8.2
2022-11-24T09:01:22.514Z,8.3
2022-11-24T09:11:24.495Z,8.4
2022-11-24T09:21:26.996Z,8.4
2022-11-24T09:31:29.046Z,8.4
2022-11-24T09:41:30.969Z,8.4
2022-11-24T09:51:32.947Z,8.3
2022-11-24T10:01:44.521Z,8.3
2022-11-24T10:11:46.191Z,8.3
2022-11-24T10:21:48.748Z,8.5
2022-11-24T10:31:50.904Z,8.6
2022-11-24T10:41:53.292Z,8.7
2022-11-24T10:51:55.392Z,8.7
2022-11-24T11:01:58.181Z,8.7
2022-11-24T11:12:09.981Z,8.8
2022-11-24T11:22:01.766Z,9
2022-11-24T11:42:05.905Z,9.3
2022-11-24T11:52:08.522Z,9.8
2022-11-24T12:02:10.371Z,9.9
2022-11-24T12:12:12.480Z,9.9
2022-11-24T12:22:14.446Z,9.7
2022-11-24T12:32:16.620Z,9.8
2022-11-24T12:42:18.401Z,9.9
2022-11-24T12:52:21.048Z,9.9
2022-11-24T13:12:25.599Z,10.1
2022-11-24T13:22:28.065Z,10
2022-11-24T13:32:29.816Z,10.1
2022-11-24T13:42:43.183Z,10.1
2022-11-24T13:52:34.956Z,10.3
2022-11-24T14:02:37.316Z,10.3
2022-11-24T14:12:39.556Z,10.3
2022-11-24T14:22:41.401Z,10.3
2022-11-24T14:32:43.399Z,10.3
2022-11-24T14:42:45.858Z,10.2
2022-11-24T14:52:47.741Z,10
2022-11-24T15:02:50.121Z,9.9
2022-11-24T15:12:52.122Z,9.8
2022-11-24T15:22:54.099Z,9.6
2022-11-24T15:32:55.937Z,9.3
2022-11-24T15:43:02.005Z,9.1
2022-11-24T15:53:00.058Z,8.9
2022-11-24T16:03:18.173Z,8.7
2022-11-24T16:13:04.144Z,8.5
2022-11-24T16:23:05.834Z,8.4
2022-11-24T16:33:08.226Z,8.3
2022-11-24T16:43:10.180Z,8.2
2022-11-24T16:53:12.211Z,8.2
2022-11-24T17:03:14.470Z,8.1
2022-11-24T17:13:17.077Z,8.1
2022-11-24T17:23:19.311Z,8
2022-11-24T17:33:21.327Z,7.7
2022-11-24T17:43:23.651Z,7.8
2022-11-24T17:53:25.489Z,7.9
2022-11-24T18:03:27.698Z,8.2
2022-11-24T18:13:54.745Z,8.2
2022-11-24T18:23:31.591Z,8.1
2022-11-24T18:33:34.271Z,8.1
2022-11-24T18:43:36.246Z,8.1
2022-11-24T18:53:38.827Z,8
2022-11-24T19:03:45.072Z,7.9
2022-11-24T19:13:43.222Z,7.9
2022-11-24T19:23:45.914Z,7.8
2022-11-24T19:33:48.588Z,7.8
2022-11-24T19:43:50.619Z,7.7
2022-11-24T19:53:52.651Z,7.6
2022-11-24T20:13:57.427Z,7.5
2022-11-24T20:23:59.255Z,7.3
2022-11-24T20:34:01.134Z,7.3
2022-11-24T20:44:03.186Z,7.3
2022-11-24T20:54:05.339Z,7.1
2022-11-24T21:04:07.056Z,7.1
2022-11-24T21:14:08.953Z,7.1
2022-11-24T21:24:11.012Z,7
2022-11-24T21:44:14.960Z,6.7
2022-11-24T21:54:17.161Z,6.7
2022-11-24T22:04:19.789Z,6.7
2022-11-24T22:14:21.656Z,6.8
2022-11-24T22:24:27.179Z,6.8
2022-11-24T22:34:25.877Z,6.6
2022-11-24T22:54:30.476Z,6.7
2022-11-24T23:04:33.270Z,6.7
2022-11-24T23:14:34.976Z,6.6
2022-11-24T23:24:37.374Z,6.6
2022-11-24T23:34:39.046Z,6.8
2022-11-24T23:44:41.711Z,6.8
2022-11-24T23:54:43.888Z,7
